Time;durP1;ratioP1;P1;durP2;ratioP2;P2;SDS_P1;SDS_P2;PMS_P1;PMS_P2;Temp;Humidity;BMP_temperature;BMP_pressure;BME280_temperature;BME280_humidity;BME280_pressure;Samples;Min_cycle;Max_cycle;Signal;HPM_P1;HPM_P2
2023/12/17 00:00:20;;;;;;;5.07;4.67;;;;;;;;;;5113180;28;20494;-71
2023/12/17 00:02:46;;;;;;;5.80;5.50;;;;;;;;;;5113739;28;20465;-72
2023/12/17 00:05:12;;;;;;;6.37;5.77;;;;;;;;;;5113448;28;20456;-71
2023/12/17 00:07:37;;;;;;;5.03;4.73;;;;;;;;;;5113447;28;20483;-71
2023/12/17 00:10:04;;;;;;;5.37;5.13;;;;;;;;;;5114062;28;20407;-71
2023/12/17 00:12:30;;;;;;;5.57;5.07;;;;;;;;;;5113490;28;20411;-72
2023/12/17 00:14:56;;;;;;;5.70;5.30;;;;;;;;;;5113723;28;20411;-72
2023/12/17 00:17:21;;;;;;;6.53;5.93;;;;;;;;;;5113634;28;20411;-72
2023/12/17 00:19:48;;;;;;;5.60;5.20;;;;;;;;;;5113636;28;20521;-72
2023/12/17 00:22:13;;;;;;;5.17;4.87;;;;;;;;;;5113434;28;20415;-71
2023/12/17 00:24:39;;;;;;;5.10;4.80;;;;;;;;;;5113444;28;20584;-72
2023/12/17 00:27:05;;;;;;;6.07;5.73;;;;;;;;;;5113357;28;20471;-72
2023/12/17 00:29:31;;;;;;;4.23;4.00;;;;;;;;;;5113654;28;20464;-72
2023/12/17 00:31:57;;;;;;;4.47;4.30;;;;;;;;;;5113598;28;20510;-71
2023/12/17 00:34:23;;;;;;;4.37;4.20;;;;;;;;;;5113816;28;20901;-71
2023/12/17 00:36:49;;;;;;;3.93;3.83;;;;;;;;;;5113651;28;20886;-71
2023/12/17 00:39:15;;;;;;;5.20;5.00;;;;;;;;;;5113453;28;20412;-72
2023/12/17 00:41:41;;;;;;;5.20;5.00;;;;;;;;;;5113241;28;20415;-71
2023/12/17 00:44:07;;;;;;;4.30;4.10;;;;;;;;;;5113205;28;20586;-72
2023/12/17 00:46:33;;;;;;;4.70;4.60;;;;;;;;;;5113666;28;20451;-71
2023/12/17 00:48:59;;;;;;;4.13;3.90;;;;;;;;;;5113584;28;20765;-72
2023/12/17 00:51:25;;;;;;;4.03;3.83;;;;;;;;;;5113265;28;20753;-72
2023/12/17 00:53:51;;;;;;;4.20;3.90;;;;;;;;;;5113451;28;20420;-72
2023/12/17 00:56:17;;;;;;;3.77;3.67;;;;;;;;;;5113195;28;20427;-71
2023/12/17 00:58:43;;;;;;;3.80;3.50;;;;;;;;;;5113533;28;20460;-71
2023/12/17 01:01:09;;;;;;;4.00;3.70;;;;;;;;;;5112970;28;20508;-72
2023/12/17 01:03:35;;;;;;;3.80;3.50;;;;;;;;;;5113208;28;20460;-72
2023/12/17 01:06:01;;;;;;;4.30;4.10;;;;;;;;;;5112937;28;20422;-71
2023/12/17 01:08:27;;;;;;;4.07;3.90;;;;;;;;;;5113239;28;20903;-72
2023/12/17 01:10:53;;;;;;;3.13;3.03;;;;;;;;;;5112955;28;20782;-72
2023/12/17 01:13:19;;;;;;;3.50;3.40;;;;;;;;;;5116986;28;20427;-71
2023/12/17 01:15:45;;;;;;;3.70;3.60;;;;;;;;;;5116703;28;20411;-72
2023/12/17 01:18:11;;;;;;;3.87;3.80;;;;;;;;;;5115442;28;20989;-71
2023/12/17 01:20:37;;;;;;;4.07;3.90;;;;;;;;;;5116696;28;20833;-72
2023/12/17 01:23:02;;;;;;;4.10;4.00;;;;;;;;;;5116616;28;20848;-72
2023/12/17 01:25:28;;;;;;;3.80;3.70;;;;;;;;;;5116550;28;20768;-72
2023/12/17 01:27:54;;;;;;;4.17;3.97;;;;;;;;;;5116721;28;20466;-71
2023/12/17 01:30:20;;;;;;;3.43;3.23;;;;;;;;;;5116689;28;20415;-71
2023/12/17 01:32:46;;;;;;;4.17;3.97;;;;;;;;;;5116638;28;20885;-71
2023/12/17 01:35:12;;;;;;;3.73;3.40;;;;;;;;;;5116275;28;20431;-71
2023/12/17 01:37:38;;;;;;;3.33;3.23;;;;;;;;;;5116239;28;20419;-72
2023/12/17 01:40:04;;;;;;;4.43;4.10;;;;;;;;;;5114947;28;20426;-71
2023/12/17 01:42:30;;;;;;;4.97;4.57;;;;;;;;;;5116262;28;20434;-72
2023/12/17 01:44:56;;;;;;;4.00;3.80;;;;;;;;;;5116419;28;20439;-72
2023/12/17 01:47:22;;;;;;;4.53;4.23;;;;;;;;;;5116044;28;20499;-72
2023/12/17 01:49:49;;;;;;;4.90;4.60;;;;;;;;;;5116079;28;20503;-71
2023/12/17 01:52:15;;;;;;;3.67;3.57;;;;;;;;;;5116296;28;20461;-71
2023/12/17 01:54:41;;;;;;;4.80;4.43;;;;;;;;;;5116548;28;20414;-72
2023/12/17 01:57:07;;;;;;;4.40;4.30;;;;;;;;;;5115957;28;20936;-72
2023/12/17 02:02:36;;;;;;;4.40;4.30;;;;;;;;;;5115931;28;20387;-72
2023/12/17 02:05:05;;;;;;;4.00;3.67;;;;;;;;;;5115563;28;20990;-71
2023/12/17 02:07:31;;;;;;;4.97;3.97;;;;;;;;;;5116007;28;20839;-71
2023/12/17 02:09:57;;;;;;;9.20;4.00;;;;;;;;;;5115693;28;20978;-71
2023/12/17 02:12:27;;;;;;;3.87;3.70;;;;;;;;;;5116106;28;20772;-71
2023/12/17 02:14:53;;;;;;;4.70;4.50;;;;;;;;;;5115641;28;20914;-71
2023/12/17 02:17:25;;;;;;;4.47;4.27;;;;;;;;;;5115498;28;20925;-71
2023/12/17 02:19:51;;;;;;;4.47;4.17;;;;;;;;;;5115658;28;20766;-71
2023/12/17 02:22:17;;;;;;;4.57;4.37;;;;;;;;;;5115348;28;20407;-72
2023/12/17 02:24:43;;;;;;;4.67;4.47;;;;;;;;;;5115527;28;20963;-71
2023/12/17 02:27:10;;;;;;;4.60;4.37;;;;;;;;;;5115316;28;20989;-71
2023/12/17 02:29:38;;;;;;;4.60;4.40;;;;;;;;;;5115088;28;20407;-72
2023/12/17 02:32:04;;;;;;;5.07;4.83;;;;;;;;;;5115546;28;20423;-71
2023/12/17 02:34:31;;;;;;;4.93;4.70;;;;;;;;;;5115171;28;20416;-71
2023/12/17 02:36:57;;;;;;;5.43;5.20;;;;;;;;;;5115775;28;20408;-72
2023/12/17 02:39:23;;;;;;;4.67;4.37;;;;;;;;;;5115107;28;20486;-71
2023/12/17 02:41:49;;;;;;;4.57;4.37;;;;;;;;;;5115152;28;20423;-71
2023/12/17 02:44:15;;;;;;;4.23;4.00;;;;;;;;;;5114723;28;20460;-72
2023/12/17 02:46:40;;;;;;;5.47;5.07;;;;;;;;;;5114949;28;20498;-71
2023/12/17 02:49:06;;;;;;;5.00;4.70;;;;;;;;;;5114880;28;20427;-71
2023/12/17 02:51:32;;;;;;;4.10;3.90;;;;;;;;;;5114679;28;20419;-71
2023/12/17 02:53:58;;;;;;;5.57;5.17;;;;;;;;;;5114705;28;20427;-71
2023/12/17 02:56:24;;;;;;;5.00;4.60;;;;;;;;;;5114996;28;20468;-71
2023/12/17 02:58:50;;;;;;;6.20;5.73;;;;;;;;;;5114684;28;20432;-72
2023/12/17 03:01:16;;;;;;;5.20;4.80;;;;;;;;;;5114555;28;20412;-71
2023/12/17 03:03:42;;;;;;;5.77;5.37;;;;;;;;;;5114341;28;20467;-71
2023/12/17 03:06:08;;;;;;;5.90;5.40;;;;;;;;;;5114440;28;20512;-71
2023/12/17 03:08:34;;;;;;;4.97;4.67;;;;;;;;;;5115116;28;20420;-72
2023/12/17 03:11:00;;;;;;;4.90;4.70;;;;;;;;;;5115073;28;20519;-72
2023/12/17 03:13:26;;;;;;;3.97;3.80;;;;;;;;;;5113327;28;20512;-71
2023/12/17 03:15:52;;;;;;;5.50;5.20;;;;;;;;;;5114408;28;20459;-72
2023/12/17 03:18:18;;;;;;;4.80;4.53;;;;;;;;;;5114598;28;20431;-71
2023/12/17 03:20:44;;;;;;;5.00;4.80;;;;;;;;;;5114617;28;20422;-71
2023/12/17 03:23:10;;;;;;;5.20;4.90;;;;;;;;;;5114124;28;20461;-72
2023/12/17 03:25:36;;;;;;;5.27;4.87;;;;;;;;;;5114524;28;20411;-72
2023/12/17 03:28:02;;;;;;;4.90;4.13;;;;;;;;;;5114386;28;20467;-71
2023/12/17 03:30:28;;;;;;;5.80;5.30;;;;;;;;;;5114589;28;20408;-71
2023/12/17 03:32:54;;;;;;;5.00;4.70;;;;;;;;;;5113989;28;20412;-72
2023/12/17 03:35:20;;;;;;;4.33;4.13;;;;;;;;;;5113327;28;20428;-72
2023/12/17 03:37:46;;;;;;;5.03;4.77;;;;;;;;;;5114537;28;20423;-72
2023/12/17 03:40:13;;;;;;;4.07;3.97;;;;;;;;;;5114015;28;20428;-71
2023/12/17 03:42:39;;;;;;;4.00;3.90;;;;;;;;;;5114318;28;20506;-71
2023/12/17 03:45:05;;;;;;;5.00;4.70;;;;;;;;;;5113848;28;20435;-71
2023/12/17 03:47:31;;;;;;;3.47;3.37;;;;;;;;;;5113772;28;20893;-72
2023/12/17 03:49:57;;;;;;;4.77;4.47;;;;;;;;;;5113939;28;20451;-71
2023/12/17 03:52:23;;;;;;;4.97;4.77;;;;;;;;;;5114068;28;20459;-71
2023/12/17 03:54:49;;;;;;;4.43;4.23;;;;;;;;;;5113742;28;20498;-71
2023/12/17 03:57:15;;;;;;;5.67;4.63;;;;;;;;;;5113646;28;20457;-71
2023/12/17 03:59:41;;;;;;;4.40;4.20;;;;;;;;;;5114003;28;20449;-71
2023/12/17 04:02:07;;;;;;;5.30;4.80;;;;;;;;;;5113615;28;20412;-71
2023/12/17 04:04:33;;;;;;;3.90;3.80;;;;;;;;;;5113517;28;20471;-71
2023/12/17 04:06:59;;;;;;;4.57;4.27;;;;;;;;;;5113828;28;20475;-71
2023/12/17 04:09:25;;;;;;;3.70;3.50;;;;;;;;;;5113532;28;20762;-71
2023/12/17 04:11:51;;;;;;;3.30;3.30;;;;;;;;;;5113462;28;20435;-71
2023/12/17 04:14:17;;;;;;;3.90;3.80;;;;;;;;;;5113418;28;20410;-71
2023/12/17 04:16:43;;;;;;;3.73;3.60;;;;;;;;;;5113724;28;20811;-71
2023/12/17 04:19:09;;;;;;;3.87;3.70;;;;;;;;;;5113483;28;20399;-71
2023/12/17 04:21:35;;;;;;;3.70;3.60;;;;;;;;;;5113795;28;20446;-72
2023/12/17 04:24:01;;;;;;;2.23;2.23;;;;;;;;;;5113636;28;20783;-71
2023/12/17 04:26:27;;;;;;;2.23;2.23;;;;;;;;;;5113394;28;20599;-72
2023/12/17 04:28:53;;;;;;;2.30;2.30;;;;;;;;;;5113416;28;20427;-72
2023/12/17 04:31:19;;;;;;;2.23;2.23;;;;;;;;;;5113423;28;20415;-72
2023/12/17 04:33:45;;;;;;;2.80;2.80;;;;;;;;;;5113535;28;20419;-72
2023/12/17 04:36:11;;;;;;;2.97;2.87;;;;;;;;;;5113231;28;20416;-71
2023/12/17 04:38:37;;;;;;;3.00;3.00;;;;;;;;;;5113504;28;20773;-71
2023/12/17 04:41:03;;;;;;;3.07;3.07;;;;;;;;;;5113385;28;20404;-71
2023/12/17 04:43:29;;;;;;;3.63;3.37;;;;;;;;;;5113179;28;20911;-72
2023/12/17 04:45:55;;;;;;;3.37;3.27;;;;;;;;;;5115037;28;20407;-72
2023/12/17 04:48:21;;;;;;;2.50;2.40;;;;;;;;;;5117431;28;20414;-71
2023/12/17 04:50:47;;;;;;;2.50;2.40;;;;;;;;;;5117634;28;20399;-71
2023/12/17 04:53:13;;;;;;;2.53;2.50;;;;;;;;;;5117616;28;20403;-71
2023/12/17 04:55:39;;;;;;;4.23;3.00;;;;;;;;;;5117440;28;20737;-71
2023/12/17 04:58:05;;;;;;;7.20;3.43;;;;;;;;;;5117356;28;20407;-71
2023/12/17 05:00:32;;;;;;;3.50;3.40;;;;;;;;;;5116996;28;20456;-72
2023/12/17 05:02:58;;;;;;;2.97;2.87;;;;;;;;;;5116814;28;20472;-71
2023/12/17 05:05:24;;;;;;;3.00;2.90;;;;;;;;;;5117518;28;20884;-72
2023/12/17 05:07:49;;;;;;;3.30;3.10;;;;;;;;;;5117094;28;20471;-71
2023/12/17 05:10:15;;;;;;;2.90;2.80;;;;;;;;;;5117184;28;20502;-72
2023/12/17 05:12:41;;;;;;;2.80;2.70;;;;;;;;;;5116808;28;20513;-72
2023/12/17 05:15:07;;;;;;;2.97;2.87;;;;;;;;;;5116508;28;20411;-71
2023/12/17 05:17:33;;;;;;;6.30;3.60;;;;;;;;;;5116663;28;20407;-72
2023/12/17 05:19:59;;;;;;;2.80;2.80;;;;;;;;;;5117236;28;20890;-71
2023/12/17 05:22:25;;;;;;;2.67;2.67;;;;;;;;;;5116748;28;20498;-72
2023/12/17 05:24:51;;;;;;;3.23;3.13;;;;;;;;;;5116587;28;20408;-71
2023/12/17 05:27:17;;;;;;;8.13;3.43;;;;;;;;;;5116771;28;20485;-71
2023/12/17 05:29:43;;;;;;;3.30;3.20;;;;;;;;;;5116334;28;20422;-71
2023/12/17 05:32:09;;;;;;;3.07;2.97;;;;;;;;;;5116737;28;20420;-72
2023/12/17 05:34:35;;;;;;;3.53;3.40;;;;;;;;;;5116379;28;20415;-71
2023/12/17 05:37:01;;;;;;;2.87;2.77;;;;;;;;;;5116418;28;20472;-71
2023/12/17 05:39:27;;;;;;;2.90;2.80;;;;;;;;;;5116883;28;20414;-71
2023/12/17 05:41:53;;;;;;;3.03;2.83;;;;;;;;;;5116528;28;20761;-71
2023/12/17 05:44:19;;;;;;;3.17;3.07;;;;;;;;;;5116467;28;20422;-71
2023/12/17 05:46:45;;;;;;;3.23;3.13;;;;;;;;;;5116285;28;20455;-72
2023/12/17 05:49:11;;;;;;;2.50;2.50;;;;;;;;;;5114768;28;20547;-71
2023/12/17 05:51:37;;;;;;;3.37;3.27;;;;;;;;;;5116110;28;20411;-71
2023/12/17 05:54:03;;;;;;;3.10;2.90;;;;;;;;;;5116564;28;20817;-72
2023/12/17 05:56:29;;;;;;;2.80;2.80;;;;;;;;;;5115793;28;20419;-71
2023/12/17 05:58:55;;;;;;;2.97;2.87;;;;;;;;;;5115301;28;20412;-71
2023/12/17 06:01:21;;;;;;;3.13;3.03;;;;;;;;;;5115826;28;20420;-71
2023/12/17 06:03:46;;;;;;;3.20;3.00;;;;;;;;;;5115846;28;20550;-71
2023/12/17 06:06:15;;;;;;;3.57;3.47;;;;;;;;;;5116029;28;20478;-71
2023/12/17 06:08:41;;;;;;;2.67;2.67;;;;;;;;;;5115752;28;20427;-71
2023/12/17 06:11:07;;;;;;;3.17;3.07;;;;;;;;;;5116155;28;20507;-71
2023/12/17 06:13:33;;;;;;;4.37;4.07;;;;;;;;;;5115618;28;20422;-71
2023/12/17 06:16:03;;;;;;;3.80;3.60;;;;;;;;;;5115601;28;20974;-72
2023/12/17 06:18:29;;;;;;;3.20;3.10;;;;;;;;;;5115877;28;20430;-71
2023/12/17 06:20:55;;;;;;;4.00;3.80;;;;;;;;;;5115796;28;20415;-71
2023/12/17 06:23:21;;;;;;;3.83;3.70;;;;;;;;;;5115664;28;20427;-71
2023/12/17 06:25:47;;;;;;;4.83;4.53;;;;;;;;;;5115657;28;20414;-71
2023/12/17 06:28:13;;;;;;;4.77;4.57;;;;;;;;;;5115288;28;20471;-71
2023/12/17 06:30:39;;;;;;;4.60;4.50;;;;;;;;;;5115636;28;20506;-71
2023/12/17 06:33:04;;;;;;;9.57;8.40;;;;;;;;;;5115172;28;20419;-71
2023/12/17 06:35:30;;;;;;;5.50;5.20;;;;;;;;;;5115800;28;20953;-71
2023/12/17 06:37:56;;;;;;;5.50;5.20;;;;;;;;;;5115119;28;20416;-71
2023/12/17 06:40:22;;;;;;;4.37;4.27;;;;;;;;;;5113784;28;20421;-71
2023/12/17 06:42:48;;;;;;;5.67;5.37;;;;;;;;;;5115059;28;20451;-71
2023/12/17 06:45:14;;;;;;;5.73;5.30;;;;;;;;;;5115031;28;20419;-72
2023/12/17 06:47:40;;;;;;;5.63;5.33;;;;;;;;;;5114838;28;20643;-71
2023/12/17 06:50:07;;;;;;;6.13;5.63;;;;;;;;;;5115097;28;20407;-71
2023/12/17 06:52:33;;;;;;;5.50;5.10;;;;;;;;;;5114959;28;20885;-71
2023/12/17 06:54:59;;;;;;;6.13;5.40;;;;;;;;;;5115030;28;20957;-72
2023/12/17 06:57:24;;;;;;;6.50;6.00;;;;;;;;;;5114832;28;20923;-72
2023/12/17 06:59:50;;;;;;;5.37;5.07;;;;;;;;;;5114592;28;20457;-71
2023/12/17 07:02:16;;;;;;;6.40;6.00;;;;;;;;;;5114923;28;20414;-71
2023/12/17 07:04:42;;;;;;;5.30;4.90;;;;;;;;;;5114392;28;20470;-71
2023/12/17 07:07:08;;;;;;;5.73;5.43;;;;;;;;;;5114931;28;20566;-71
2023/12/17 07:09:34;;;;;;;6.23;5.73;;;;;;;;;;5114821;28;20419;-71
2023/12/17 07:12:02;;;;;;;6.13;5.73;;;;;;;;;;5114531;28;20913;-71
2023/12/17 07:14:27;;;;;;;6.87;6.30;;;;;;;;;;5114272;28;20424;-69
2023/12/17 07:16:53;;;;;;;8.40;6.73;;;;;;;;;;5114374;28;20408;-72
2023/12/17 07:19:19;;;;;;;7.20;6.57;;;;;;;;;;5114558;28;20416;-72
2023/12/17 07:21:45;;;;;;;8.00;7.30;;;;;;;;;;5114367;28;20404;-72
2023/12/17 07:24:11;;;;;;;7.50;6.80;;;;;;;;;;5114123;28;20471;-72
2023/12/17 07:26:37;;;;;;;7.60;6.90;;;;;;;;;;5114278;28;20471;-72
2023/12/17 07:29:03;;;;;;;6.57;6.07;;;;;;;;;;5114277;28;20411;-71
2023/12/17 07:31:29;;;;;;;7.20;6.60;;;;;;;;;;5112537;28;20424;-72
2023/12/17 07:33:55;;;;;;;8.57;7.80;;;;;;;;;;5114789;28;20424;-72
2023/12/17 07:36:21;;;;;;;9.40;7.90;;;;;;;;;;5113918;28;20427;-72
2023/12/17 07:38:47;;;;;;;7.70;7.00;;;;;;;;;;5114029;28;20420;-72
2023/12/17 07:41:13;;;;;;;7.53;6.90;;;;;;;;;;5112729;28;20431;-72
2023/12/17 07:43:39;;;;;;;7.70;7.00;;;;;;;;;;5114116;28;20419;-72
2023/12/17 07:46:05;;;;;;;8.33;7.50;;;;;;;;;;5113740;28;20416;-72
2023/12/17 07:48:31;;;;;;;7.00;6.40;;;;;;;;;;5113928;28;20438;-72
2023/12/17 07:50:57;;;;;;;6.77;6.27;;;;;;;;;;5114309;28;20511;-72
2023/12/17 07:53:23;;;;;;;7.37;6.77;;;;;;;;;;5114114;28;20424;-72
2023/12/17 07:55:50;;;;;;;6.60;6.10;;;;;;;;;;5114087;28;20414;-72
2023/12/17 07:58:16;;;;;;;8.03;6.50;;;;;;;;;;5114375;28;20415;-71
2023/12/17 08:00:42;;;;;;;7.80;7.20;;;;;;;;;;5113944;28;20423;-72
2023/12/17 08:03:08;;;;;;;8.50;7.20;;;;;;;;;;5113478;28;20420;-72
2023/12/17 08:05:34;;;;;;;7.70;7.00;;;;;;;;;;5113758;28;20507;-71
2023/12/17 08:08:01;;;;;;;6.80;6.27;;;;;;;;;;5113757;28;20475;-71
2023/12/17 08:10:27;;;;;;;7.40;6.80;;;;;;;;;;5113871;28;20422;-71
2023/12/17 08:12:53;;;;;;;7.10;6.47;;;;;;;;;;5113573;28;20408;-71
2023/12/17 08:15:19;;;;;;;7.50;6.90;;;;;;;;;;5113473;28;20418;-71
2023/12/17 08:17:45;;;;;;;7.93;7.17;;;;;;;;;;5113476;28;20420;-71
2023/12/17 08:20:11;;;;;;;8.63;7.73;;;;;;;;;;5113142;28;20426;-71
2023/12/17 08:22:37;;;;;;;7.57;6.87;;;;;;;;;;5113848;28;20422;-72
2023/12/17 08:25:03;;;;;;;12.20;7.20;;;;;;;;;;5113505;28;20412;-69
2023/12/17 08:27:29;;;;;;;14.50;7.80;;;;;;;;;;5113675;28;20573;-62
2023/12/17 08:29:55;;;;;;;8.10;7.30;;;;;;;;;;5113934;28;20907;-72
2023/12/17 08:32:21;;;;;;;8.67;7.87;;;;;;;;;;5113916;28;20739;-72
2023/12/17 08:34:47;;;;;;;15.63;11.57;;;;;;;;;;5113614;28;20764;-72
2023/12/17 08:37:13;;;;;;;14.00;9.83;;;;;;;;;;5113213;28;20423;-72
2023/12/17 08:39:39;;;;;;;8.70;7.67;;;;;;;;;;5113246;28;20962;-72
2023/12/17 08:42:05;;;;;;;9.90;7.50;;;;;;;;;;5113536;28;20455;-72
2023/12/17 08:44:31;;;;;;;8.43;7.73;;;;;;;;;;5113262;28;20447;-72
2023/12/17 08:46:57;;;;;;;11.13;7.17;;;;;;;;;;5113140;28;21004;-72
2023/12/17 08:49:23;;;;;;;7.40;6.90;;;;;;;;;;5113581;28;20498;-72
2023/12/17 08:51:50;;;;;;;8.07;7.37;;;;;;;;;;5113255;28;20428;-72
2023/12/17 08:54:16;;;;;;;6.30;5.90;;;;;;;;;;5113181;28;20418;-72
2023/12/17 08:56:42;;;;;;;8.00;7.30;;;;;;;;;;5113199;28;20416;-72
2023/12/17 08:59:08;;;;;;;12.03;10.83;;;;;;;;;;5113047;28;20424;-72
2023/12/17 09:01:36;;;;;;;10.00;8.43;;;;;;;;;;5113101;28;20790;-72
2023/12/17 09:04:02;;;;;;;9.40;7.53;;;;;;;;;;5112971;28;20471;-72
2023/12/17 09:06:28;;;;;;;7.53;6.97;;;;;;;;;;5113087;28;20466;-73
2023/12/17 09:08:53;;;;;;;7.77;7.07;;;;;;;;;;5113388;28;20448;-72
2023/12/17 09:11:19;;;;;;;7.73;6.93;;;;;;;;;;5112546;28;20441;-71
2023/12/17 09:13:45;;;;;;;7.07;6.57;;;;;;;;;;5112918;28;20451;-71
2023/12/17 09:16:11;;;;;;;10.33;8.97;;;;;;;;;;5112774;28;20412;-72
2023/12/17 09:18:39;;;;;;;57.17;35.60;;;;;;;;;;5111372;28;20412;-72
2023/12/17 09:21:05;;;;;;;20.07;14.63;;;;;;;;;;5113270;28;20408;-72
2023/12/17 09:23:30;;;;;;;7.83;7.13;;;;;;;;;;5112749;28;20479;-72
2023/12/17 09:25:57;;;;;;;8.20;7.17;;;;;;;;;;5112817;28;20498;-72
2023/12/17 09:28:23;;;;;;;8.13;7.43;;;;;;;;;;5112668;28;20494;-72
2023/12/17 09:30:49;;;;;;;10.50;7.63;;;;;;;;;;5112323;28;20899;-72
2023/12/17 09:33:16;;;;;;;8.40;7.70;;;;;;;;;;5114705;28;20498;-72
2023/12/17 09:35:42;;;;;;;8.40;7.60;;;;;;;;;;5116164;28;20876;-71
2023/12/17 09:38:10;;;;;;;11.20;9.30;;;;;;;;;;5116113;28;20423;-72
2023/12/17 09:40:36;;;;;;;10.47;8.47;;;;;;;;;;5116243;28;20423;-72
2023/12/17 09:43:02;;;;;;;10.57;9.47;;;;;;;;;;5116189;28;20521;-72
2023/12/17 09:45:28;;;;;;;10.73;8.60;;;;;;;;;;5116101;28;20916;-72
2023/12/17 09:47:54;;;;;;;12.13;8.80;;;;;;;;;;5116213;28;20482;-72
2023/12/17 09:50:20;;;;;;;14.30;11.47;;;;;;;;;;5116086;28;20754;-72
2023/12/17 09:52:47;;;;;;;8.87;8.07;;;;;;;;;;5115873;28;20498;-72
2023/12/17 09:55:15;;;;;;;8.53;7.83;;;;;;;;;;5116759;28;20764;-72
2023/12/17 09:57:41;;;;;;;17.60;11.33;;;;;;;;;;5115986;28;20446;-72
2023/12/17 10:00:12;;;;;;;10.63;9.53;;;;;;;;;;5116624;28;20511;-72
2023/12/17 10:02:40;;;;;;;10.73;9.60;;;;;;;;;;5116483;28;20483;-73
2023/12/17 10:05:07;;;;;;;9.90;8.73;;;;;;;;;;5115795;28;20455;-72
2023/12/17 10:07:34;;;;;;;11.87;9.43;;;;;;;;;;5115850;28;20463;-73
2023/12/17 10:10:00;;;;;;;12.43;10.00;;;;;;;;;;5116013;28;20408;-72
2023/12/17 10:12:27;;;;;;;13.03;10.70;;;;;;;;;;5115769;28;20420;-72
2023/12/17 10:14:53;;;;;;;13.57;10.83;;;;;;;;;;5115569;28;20911;-72
2023/12/17 10:17:19;;;;;;;10.20;8.40;;;;;;;;;;5115512;28;20507;-72
2023/12/17 10:19:52;;;;;;;13.03;9.37;;;;;;;;;;5116574;28;20416;-72
2023/12/17 10:22:19;;;;;;;9.30;8.50;;;;;;;;;;5115432;28;21045;-72
2023/12/17 10:24:45;;;;;;;12.77;9.53;;;;;;;;;;5115794;28;20415;-72
2023/12/17 10:27:18;;;;;;;9.60;8.77;;;;;;;;;;5115413;28;20602;-72
2023/12/17 10:29:48;;;;;;;12.83;9.40;;;;;;;;;;5115714;28;20404;-71
2023/12/17 10:32:14;;;;;;;11.50;9.80;;;;;;;;;;5115346;28;20403;-72
2023/12/17 10:34:41;;;;;;;11.77;9.73;;;;;;;;;;5115600;28;20568;-72
2023/12/17 10:37:07;;;;;;;10.57;9.57;;;;;;;;;;5115501;28;20427;-71
2023/12/17 10:39:34;;;;;;;9.63;8.40;;;;;;;;;;5115472;28;20436;-72
2023/12/17 10:42:01;;;;;;;21.37;10.53;;;;;;;;;;5115165;28;20532;-72
2023/12/17 10:44:27;;;;;;;10.10;8.33;;;;;;;;;;5114774;28;20419;-72
2023/12/17 10:46:54;;;;;;;11.10;9.10;;;;;;;;;;5115278;28;20473;-72
2023/12/17 10:49:20;;;;;;;10.43;8.57;;;;;;;;;;5114980;28;20423;-72
2023/12/17 10:51:47;;;;;;;9.70;8.70;;;;;;;;;;5115241;28;20410;-68
2023/12/17 10:54:13;;;;;;;8.17;7.53;;;;;;;;;;5115088;28;20506;-71
2023/12/17 10:56:40;;;;;;;11.43;9.80;;;;;;;;;;5114838;28;20443;-72
2023/12/17 10:59:09;;;;;;;7.90;7.20;;;;;;;;;;5114857;28;20900;-72
2023/12/17 11:01:37;;;;;;;10.90;9.90;;;;;;;;;;5115099;28;20414;-72
2023/12/17 11:04:03;;;;;;;10.73;8.70;;;;;;;;;;5114458;28;20467;-72
2023/12/17 11:06:29;;;;;;;11.83;9.00;;;;;;;;;;5114504;28;20947;-72
2023/12/17 11:08:56;;;;;;;85.67;41.10;;;;;;;;;;5114516;28;20427;-72
2023/12/17 11:11:22;;;;;;;46.17;28.33;;;;;;;;;;5114770;28;20423;-72
2023/12/17 11:13:49;;;;;;;21.80;17.80;;;;;;;;;;5114674;28;20411;-72
2023/12/17 11:16:18;;;;;;;13.90;10.13;;;;;;;;;;5114398;28;20873;-69
2023/12/17 11:18:44;;;;;;;31.37;20.07;;;;;;;;;;5114201;28;20431;-72
2023/12/17 11:21:10;;;;;;;16.47;11.63;;;;;;;;;;5112854;28;20899;-72
2023/12/17 11:23:37;;;;;;;12.27;10.60;;;;;;;;;;5114359;28;20426;-72
2023/12/17 11:26:03;;;;;;;10.13;9.13;;;;;;;;;;5114341;28;20461;-72
2023/12/17 11:28:30;;;;;;;12.87;11.50;;;;;;;;;;5114273;28;20467;-72
2023/12/17 11:30:56;;;;;;;15.27;12.03;;;;;;;;;;5114250;28;20816;-71
2023/12/17 11:33:22;;;;;;;14.50;11.17;;;;;;;;;;5114130;28;20777;-72
2023/12/17 11:35:48;;;;;;;13.17;9.87;;;;;;;;;;5114449;28;20502;-72
2023/12/17 11:38:15;;;;;;;13.60;9.50;;;;;;;;;;5114369;28;20451;-72
2023/12/17 11:40:41;;;;;;;15.17;11.47;;;;;;;;;;5114414;28;20416;-72
2023/12/17 11:43:07;;;;;;;14.93;11.20;;;;;;;;;;5114260;28;20414;-72
2023/12/17 11:45:35;;;;;;;15.07;9.93;;;;;;;;;;5130113;27;20460;-72
2023/12/17 11:48:07;;;;;;;19.10;12.10;;;;;;;;;;5113865;28;20459;-72
2023/12/17 11:50:40;;;;;;;24.20;14.50;;;;;;;;;;5114205;28;20412;-71
2023/12/17 11:53:06;;;;;;;13.13;11.00;;;;;;;;;;5113844;28;20415;-72
2023/12/17 11:55:42;;;;;;;12.77;10.23;;;;;;;;;;5113175;28;20412;-72
2023/12/17 11:58:08;;;;;;;24.40;17.70;;;;;;;;;;5114057;28;20423;-72
2023/12/17 12:00:34;;;;;;;21.37;14.77;;;;;;;;;;5113724;28;20415;-72
2023/12/17 12:02:59;;;;;;;15.00;11.40;;;;;;;;;;5113731;28;20415;-72
2023/12/17 12:05:26;;;;;;;14.10;10.37;;;;;;;;;;5112373;28;20427;-72
2023/12/17 12:07:55;;;;;;;11.83;10.50;;;;;;;;;;5113483;28;20486;-72
2023/12/17 12:10:22;;;;;;;17.50;13.83;;;;;;;;;;5113514;28;20931;-72
2023/12/17 12:13:00;;;;;;;15.87;12.67;;;;;;;;;;5113386;28;20442;-72
2023/12/17 12:15:26;;;;;;;13.57;11.07;;;;;;;;;;5113507;28;20408;-72
2023/12/17 12:17:52;;;;;;;15.10;12.47;;;;;;;;;;5113813;28;20594;-72
2023/12/17 12:20:33;;;;;;;41.87;15.60;;;;;;;;;;5113695;28;20787;-72
2023/12/17 12:22:59;;;;;;;17.33;12.20;;;;;;;;;;5113834;28;20408;-72
2023/12/17 12:25:25;;;;;;;16.27;11.57;;;;;;;;;;5113658;28;20811;-72
2023/12/17 12:27:51;;;;;;;13.60;10.87;;;;;;;;;;5113396;28;20511;-72
2023/12/17 12:30:29;;;;;;;19.00;13.63;;;;;;;;;;5113593;28;20768;-72
2023/12/17 12:32:55;;;;;;;14.43;12.30;;;;;;;;;;5113710;28;20821;-72
2023/12/17 12:35:29;;;;;;;13.00;10.70;;;;;;;;;;5113377;28;20899;-72
2023/12/17 12:37:57;;;;;;;11.67;10.50;;;;;;;;;;5113648;28;20445;-72
2023/12/17 12:40:31;;;;;;;13.80;10.00;;;;;;;;;;5113239;28;20494;-72
2023/12/17 12:43:00;;;;;;;14.63;9.60;;;;;;;;;;5113237;28;20395;-72
2023/12/17 12:45:26;;;;;;;11.07;9.30;;;;;;;;;;5113597;28;20472;-71
2023/12/17 12:47:52;;;;;;;12.17;8.90;;;;;;;;;;5113414;28;20569;-72
2023/12/17 12:50:18;;;;;;;14.67;10.30;;;;;;;;;;5113232;28;20412;-72
2023/12/17 12:52:44;;;;;;;12.17;9.90;;;;;;;;;;5113141;28;20411;-72
2023/12/17 12:55:10;;;;;;;29.53;20.00;;;;;;;;;;5113097;28;20874;-72
2023/12/17 12:57:37;;;;;;;11.77;9.63;;;;;;;;;;5113029;28;20414;-72
2023/12/17 13:00:03;;;;;;;9.90;8.63;;;;;;;;;;5111816;28;20419;-72
2023/12/17 13:02:31;;;;;;;10.90;9.80;;;;;;;;;;5113078;28;20412;-72
2023/12/17 13:04:58;;;;;;;17.87;10.77;;;;;;;;;;5112957;28;21063;-72
2023/12/17 13:07:24;;;;;;;13.57;9.87;;;;;;;;;;5115453;28;20566;-72
2023/12/17 13:09:51;;;;;;;25.03;11.17;;;;;;;;;;5117247;28;20499;-72
2023/12/17 13:12:17;;;;;;;17.90;11.83;;;;;;;;;;5117226;28;20438;-72
2023/12/17 13:14:43;;;;;;;18.23;12.70;;;;;;;;;;5117381;28;20888;-72
2023/12/17 13:17:09;;;;;;;21.97;13.73;;;;;;;;;;5116840;28;20495;-72
2023/12/17 13:19:35;;;;;;;23.03;13.70;;;;;;;;;;5116807;28;20419;-72
2023/12/17 13:22:01;;;;;;;27.70;15.10;;;;;;;;;;5116962;28;20423;-72
2023/12/17 13:24:27;;;;;;;20.27;15.20;;;;;;;;;;5116812;28;20769;-72
2023/12/17 13:26:53;;;;;;;17.63;12.77;;;;;;;;;;5116834;28;20480;-71
2023/12/17 13:29:19;;;;;;;19.27;13.10;;;;;;;;;;5116939;28;20448;-72
2023/12/17 13:31:45;;;;;;;20.43;13.57;;;;;;;;;;5116500;28;20422;-72
2023/12/17 13:34:11;;;;;;;21.93;13.73;;;;;;;;;;5116870;27;20772;-72
2023/12/17 13:36:38;;;;;;;13.90;10.57;;;;;;;;;;5116529;28;20887;-72
2023/12/17 13:39:04;;;;;;;20.43;12.50;;;;;;;;;;5117542;28;20412;-72
2023/12/17 13:41:30;;;;;;;13.23;10.30;;;;;;;;;;5116408;28;20798;-72
2023/12/17 13:43:56;;;;;;;19.50;11.70;;;;;;;;;;5116298;28;20415;-72
2023/12/17 13:46:22;;;;;;;14.40;10.83;;;;;;;;;;5116520;28;20449;-72
2023/12/17 13:48:48;;;;;;;14.00;10.10;;;;;;;;;;5116547;28;20465;-72
2023/12/17 13:51:15;;;;;;;18.10;11.40;;;;;;;;;;5116454;28;20957;-72
2023/12/17 13:53:42;;;;;;;17.00;11.27;;;;;;;;;;5116461;28;20428;-72
2023/12/17 13:56:08;;;;;;;15.50;11.00;;;;;;;;;;5116434;28;20815;-72
2023/12/17 13:58:34;;;;;;;13.90;10.30;;;;;;;;;;5116045;28;20408;-72
2023/12/17 14:01:00;;;;;;;15.13;9.87;;;;;;;;;;5116197;28;20475;-72
2023/12/17 14:03:27;;;;;;;12.90;9.13;;;;;;;;;;5115992;28;20529;-72
2023/12/17 14:05:54;;;;;;;13.00;10.60;;;;;;;;;;5116001;28;20399;-72
2023/12/17 14:08:20;;;;;;;13.30;10.47;;;;;;;;;;5115819;28;20811;-72
2023/12/17 14:10:46;;;;;;;14.53;11.10;;;;;;;;;;5116064;28;20404;-72
2023/12/17 14:13:12;;;;;;;15.03;11.00;;;;;;;;;;5115746;28;20469;-72
2023/12/17 14:15:38;;;;;;;14.57;11.20;;;;;;;;;;5116025;28;20952;-72
2023/12/17 14:18:05;;;;;;;19.83;12.83;;;;;;;;;;5115111;28;20748;-72
2023/12/17 14:20:31;;;;;;;14.20;11.73;;;;;;;;;;5115581;28;20408;-72
2023/12/17 14:22:57;;;;;;;17.20;12.10;;;;;;;;;;5115428;28;20446;-72
2023/12/17 14:25:23;;;;;;;13.83;10.90;;;;;;;;;;5115587;28;20411;-72
2023/12/17 14:27:49;;;;;;;16.17;11.03;;;;;;;;;;5115667;28;20463;-72
2023/12/17 14:30:14;;;;;;;18.07;13.37;;;;;;;;;;5115655;28;20907;-72
2023/12/17 14:32:40;;;;;;;17.70;12.60;;;;;;;;;;5115355;28;20938;-72